map of CXR home
Great Circle Mapper logo
CXR - Airport
Location
City:  Nha Trang, Vietnam
Near (Alt.):Cam Ranh
Name:Cam Ranh International Airport
ICAO / IATA:VVCR / CXR

Details
Type:Airport (Aerodrome, Airfield)
Use:Public/Civil, International (customs port of entry)
Latitude:1159'53"N (11.998153)
Longitude:10913'10"E (109.219372)
Datum:WGS 1984
Elevation:40 ft (12 m)
Variation:0.6W (WMM2010 magnetic declination)
Runways:1
Longest:10000 × 150 ft (3048 × 45.5 m), paved

Time
Time Zone:UTC+7
Local Time:

Weather
METAR:VVCR 290630Z 01009KT 9999 FEW015 BKN050 30/21 Q1006 NOSIG
TAF:VVCR 282300Z 2900/2924 02010KT 9999 SCT015 SCT050
TEMPO 2900/2903 4000 SHRA SCT013 FEW015CB BKN050
BECMG 2903/2904 5000 RA
TEMPO 2904/2909 3000 TSRA SCT013 FEW015CB BKN050
TEMPO 2909/2916 34020G30KT 2000 TSRA SCT013 FEW015CB BKN050
BECMG 2916/2918 23010KT

Related Locations
Nearby:
Farthest:SPNU: 12443 mi / 20025 km
Manu, PE

Find:

   beyond  
but within

Other Information
Maps:
NOTAMs:
Links:
Sources:

  
flag of Vietnam   

Sectional Chart

Flight Planning
at skyvector.com

Satellite Image

Google Maps Satellite View

 

Copyright © 2004-2014 Karl L. Swartz. All rights reserved.
The Great Circle Mapper name and logo are trademarks of the Great Circle Mapper.
All other trademarks mentioned herein belong to their respective owners.
Please see credits for attibutions and further copyright information.

  Follow gcmap on Facebook Follow gcmap on Twitter

hCard Microformat

Geo Microformat